N142RC MDJB-MDJB
Flight info
| Callsign | N142RC |
|---|---|
| Flight time | N/A |
| Altitude | 4000 |
| Route | VFR |
| Aircraft | B429/L-SFG/C |
Departure
| Time | 2026-04-20 19:59 |
|---|---|
| Airport | La Isabela International Airport (MDJB) |
Arrival
| Time | N/A |
|---|---|
| Airport | La Isabela International Airport (MDJB) |
| Time | Latitude | Longitude | Altitude | Speed | Heading |
|---|---|---|---|---|---|
| 2026-04-20 19:50 | 18.57898 | -69.98248 | 82 ft | 0 kts | 96° |
| 2026-04-20 19:57 | 18.57899 | -69.98254 | 89 ft | 2 kts | 120° |
| 2026-04-20 19:58 | 18.57895 | -69.98287 | 93 ft | 5 kts | 174° |
| 2026-04-20 19:58 | 18.57898 | -69.98303 | 102 ft | 1 kts | 210° |
| 2026-04-20 19:58 | 18.57891 | -69.98309 | 98 ft | 1 kts | 226° |
| 2026-04-20 19:58 | 18.57894 | -69.98315 | 92 ft | 2 kts | 246° |
| 2026-04-20 19:59 | 18.57963 | -69.98328 | 202 ft | 42 kts | 300° |
| 2026-04-20 19:59 | 18.58617 | -69.98385 | 438 ft | 135 kts | 357° |
| 2026-04-20 19:59 | 18.59625 | -69.98521 | 915 ft | 150 kts | 344° |
| 2026-04-20 19:59 | 18.60602 | -69.98990 | 1273 ft | 158 kts | 333° |
| 2026-04-20 20:00 | 18.61581 | -69.99443 | 1793 ft | 150 kts | 335° |
| 2026-04-20 20:00 | 18.62240 | -69.99715 | 2121 ft | 151 kts | 337° |
| 2026-04-20 20:00 | 18.63197 | -70.00083 | 2680 ft | 145 kts | 337° |
| 2026-04-20 20:00 | 18.64157 | -70.00461 | 3226 ft | 149 kts | 339° |
| 2026-04-20 20:01 | 18.65125 | -70.00881 | 3628 ft | 152 kts | 335° |
| 2026-04-20 20:01 | 18.66069 | -70.01331 | 4154 ft | 148 kts | 335° |
| 2026-04-20 20:01 | 18.67005 | -70.01775 | 4687 ft | 148 kts | 335° |
| 2026-04-20 20:01 | 18.67961 | -70.02179 | 5158 ft | 151 kts | 342° |
| 2026-04-20 20:02 | 18.69021 | -70.02513 | 5174 ft | 165 kts | 343° |
| 2026-04-20 20:02 | 18.70112 | -70.02893 | 4999 ft | 167 kts | 340° |
| 2026-04-20 20:02 | 18.71193 | -70.03332 | 4884 ft | 166 kts | 338° |
| 2026-04-20 20:02 | 18.72248 | -70.03819 | 4844 ft | 165 kts | 335° |
| 2026-04-20 20:03 | 18.73293 | -70.04326 | 4840 ft | 164 kts | 335° |
| 2026-04-20 20:03 | 18.74321 | -70.04829 | 4844 ft | 164 kts | 335° |
| 2026-04-20 20:03 | 18.75359 | -70.05338 | 4848 ft | 164 kts | 335° |
| 2026-04-20 20:03 | 18.76394 | -70.05846 | 4849 ft | 164 kts | 335° |
| 2026-04-20 20:04 | 18.77422 | -70.06351 | 4849 ft | 164 kts | 335° |
| 2026-04-20 20:04 | 18.78462 | -70.06861 | 4849 ft | 164 kts | 335° |
| 2026-04-20 20:04 | 18.79493 | -70.07367 | 4849 ft | 164 kts | 335° |
| 2026-04-20 20:04 | 18.80522 | -70.07872 | 4849 ft | 164 kts | 335° |
| 2026-04-20 20:05 | 18.81559 | -70.08381 | 4848 ft | 165 kts | 335° |
| 2026-04-20 20:05 | 18.82597 | -70.08891 | 4889 ft | 163 kts | 335° |
| 2026-04-20 20:05 | 18.83628 | -70.09397 | 4994 ft | 162 kts | 335° |
| 2026-04-20 20:05 | 18.84658 | -70.09903 | 5045 ft | 164 kts | 335° |
| 2026-04-20 20:06 | 18.85683 | -70.10406 | 5053 ft | 164 kts | 335° |
| 2026-04-20 20:06 | 18.86721 | -70.10915 | 5048 ft | 165 kts | 335° |
| 2026-04-20 20:06 | 18.87762 | -70.11426 | 5044 ft | 164 kts | 335° |
| 2026-04-20 20:06 | 18.88800 | -70.11935 | 5043 ft | 164 kts | 335° |
| 2026-04-20 20:07 | 18.89842 | -70.12445 | 5043 ft | 164 kts | 335° |
| 2026-04-20 20:07 | 18.90879 | -70.12954 | 5044 ft | 164 kts | 335° |
| 2026-04-20 20:07 | 18.91904 | -70.13456 | 5045 ft | 164 kts | 335° |
| 2026-04-20 20:07 | 18.92943 | -70.13965 | 5045 ft | 164 kts | 335° |
| 2026-04-20 20:08 | 18.93985 | -70.14476 | 5044 ft | 164 kts | 335° |
| 2026-04-20 20:08 | 18.95025 | -70.14985 | 5044 ft | 164 kts | 335° |
| 2026-04-20 20:08 | 18.96066 | -70.15495 | 5043 ft | 165 kts | 335° |
| 2026-04-20 20:08 | 18.97102 | -70.16019 | 5041 ft | 165 kts | 334° |
| 2026-04-20 20:09 | 18.98124 | -70.16540 | 5040 ft | 165 kts | 334° |
| 2026-04-20 20:09 | 18.99161 | -70.17070 | 5034 ft | 166 kts | 334° |
| 2026-04-20 20:09 | 19.00204 | -70.17607 | 5023 ft | 167 kts | 334° |
| 2026-04-20 20:09 | 19.01247 | -70.18143 | 5017 ft | 166 kts | 334° |
| 2026-04-20 20:10 | 19.02281 | -70.18675 | 5016 ft | 166 kts | 334° |
| 2026-04-20 20:10 | 19.03323 | -70.19212 | 5018 ft | 166 kts | 334° |
| 2026-04-20 20:10 | 19.04364 | -70.19747 | 5019 ft | 166 kts | 334° |
| 2026-04-20 20:10 | 19.05405 | -70.20283 | 5021 ft | 166 kts | 334° |
| 2026-04-20 20:11 | 19.06435 | -70.20813 | 5022 ft | 166 kts | 334° |
| 2026-04-20 20:11 | 19.07476 | -70.21348 | 5022 ft | 166 kts | 334° |
| 2026-04-20 20:11 | 19.08515 | -70.21883 | 5022 ft | 166 kts | 334° |
| 2026-04-20 20:11 | 19.09552 | -70.22416 | 5023 ft | 166 kts | 334° |
| 2026-04-20 20:12 | 19.10581 | -70.22945 | 5023 ft | 166 kts | 334° |
| 2026-04-20 20:12 | 19.11638 | -70.23488 | 5024 ft | 166 kts | 334° |
| 2026-04-20 20:12 | 19.12677 | -70.24022 | 5025 ft | 166 kts | 334° |
| 2026-04-20 20:13 | 19.14741 | -70.25083 | 5026 ft | 166 kts | 334° |
| 2026-04-20 20:13 | 19.15782 | -70.25617 | 5027 ft | 166 kts | 334° |
| 2026-04-20 20:13 | 19.16827 | -70.26154 | 5022 ft | 168 kts | 334° |
| 2026-04-20 20:13 | 19.17877 | -70.26695 | 5007 ft | 168 kts | 334° |
| 2026-04-20 20:14 | 19.18929 | -70.27238 | 4997 ft | 168 kts | 334° |
| 2026-04-20 20:14 | 19.19984 | -70.27782 | 4993 ft | 168 kts | 334° |
| 2026-04-20 20:14 | 19.21024 | -70.28318 | 4991 ft | 168 kts | 334° |
| 2026-04-20 20:14 | 19.22079 | -70.28862 | 4990 ft | 168 kts | 334° |
| 2026-04-20 20:15 | 19.23131 | -70.29404 | 4989 ft | 169 kts | 334° |
| 2026-04-20 20:15 | 19.24195 | -70.29954 | 4988 ft | 169 kts | 334° |
| 2026-04-20 20:15 | 19.25252 | -70.30499 | 4987 ft | 168 kts | 334° |
| 2026-04-20 20:15 | 19.26297 | -70.31038 | 4990 ft | 168 kts | 334° |
| 2026-04-20 20:16 | 19.27348 | -70.31579 | 4990 ft | 169 kts | 334° |
| 2026-04-20 20:16 | 19.28411 | -70.32129 | 4984 ft | 169 kts | 334° |
| 2026-04-20 20:16 | 19.29472 | -70.32678 | 4979 ft | 169 kts | 334° |
| 2026-04-20 20:16 | 19.30520 | -70.33221 | 4978 ft | 169 kts | 334° |
| 2026-04-20 20:17 | 19.31580 | -70.33770 | 4977 ft | 169 kts | 334° |
| 2026-04-20 20:17 | 19.32639 | -70.34319 | 4977 ft | 169 kts | 334° |
| 2026-04-20 20:17 | 19.33696 | -70.34867 | 4976 ft | 170 kts | 334° |
| 2026-04-20 20:17 | 19.34760 | -70.35418 | 4974 ft | 170 kts | 334° |
| 2026-04-20 20:18 | 19.35822 | -70.35969 | 4972 ft | 170 kts | 334° |
| 2026-04-20 20:18 | 19.36879 | -70.36518 | 4971 ft | 170 kts | 334° |
| 2026-04-20 20:18 | 19.37946 | -70.37072 | 4970 ft | 170 kts | 334° |
| 2026-04-20 20:18 | 19.39008 | -70.37622 | 4971 ft | 170 kts | 334° |
| 2026-04-20 20:19 | 19.40064 | -70.38170 | 4971 ft | 170 kts | 334° |
| 2026-04-20 20:19 | 19.41123 | -70.38719 | 4971 ft | 170 kts | 334° |
| 2026-04-20 20:19 | 19.42193 | -70.39274 | 4971 ft | 170 kts | 334° |
| 2026-04-20 20:19 | 19.43249 | -70.39821 | 4971 ft | 170 kts | 334° |
| 2026-04-20 20:20 | 19.44314 | -70.40373 | 4971 ft | 170 kts | 334° |
| 2026-04-20 20:20 | 19.45352 | -70.40911 | 4971 ft | 170 kts | 334° |
| 2026-04-20 20:20 | 19.46231 | -70.41368 | 4971 ft | 170 kts | 334° |
| 2026-04-20 20:20 | 19.47296 | -70.41921 | 4971 ft | 170 kts | 334° |
| 2026-04-20 20:21 | 19.48356 | -70.42469 | 4971 ft | 170 kts | 334° |
| 2026-04-20 20:21 | 19.49421 | -70.43018 | 4971 ft | 170 kts | 334° |
| 2026-04-20 20:21 | 19.50486 | -70.43569 | 4971 ft | 170 kts | 334° |
| 2026-04-20 20:21 | 19.51540 | -70.44115 | 4972 ft | 170 kts | 334° |
| 2026-04-20 20:22 | 19.52609 | -70.44667 | 4971 ft | 170 kts | 334° |
| 2026-04-20 20:22 | 19.53665 | -70.45210 | 4971 ft | 170 kts | 334° |
| 2026-04-20 20:22 | 19.54731 | -70.45757 | 4970 ft | 170 kts | 334° |
| 2026-04-20 20:22 | 19.55797 | -70.46303 | 4977 ft | 169 kts | 334° |
| 2026-04-20 20:23 | 19.56859 | -70.46846 | 4957 ft | 171 kts | 334° |
| 2026-04-20 20:23 | 19.57943 | -70.47401 | 4849 ft | 172 kts | 334° |
| 2026-04-20 20:23 | 19.59016 | -70.47950 | 4694 ft | 174 kts | 334° |
| 2026-04-20 20:23 | 19.60112 | -70.48514 | 4500 ft | 175 kts | 334° |
| 2026-04-20 20:24 | 19.61200 | -70.49074 | 4302 ft | 176 kts | 334° |
| 2026-04-20 20:24 | 19.62309 | -70.49648 | 4102 ft | 176 kts | 334° |
| 2026-04-20 20:24 | 19.63413 | -70.50224 | 3900 ft | 176 kts | 334° |
| 2026-04-20 20:24 | 19.64477 | -70.50778 | 3620 ft | 167 kts | 334° |
| 2026-04-20 20:25 | 19.65517 | -70.51320 | 3409 ft | 166 kts | 335° |
| 2026-04-20 20:25 | 19.66552 | -70.51862 | 3209 ft | 166 kts | 334° |
| 2026-04-20 20:25 | 19.67575 | -70.52402 | 3012 ft | 166 kts | 334° |
| 2026-04-20 20:25 | 19.68615 | -70.52952 | 2812 ft | 166 kts | 334° |
| 2026-04-20 20:26 | 19.69647 | -70.53502 | 2615 ft | 167 kts | 335° |
| 2026-04-20 20:26 | 19.70681 | -70.54062 | 2482 ft | 165 kts | 335° |
| 2026-04-20 20:26 | 19.71686 | -70.54614 | 2449 ft | 163 kts | 334° |
| 2026-04-20 20:26 | 19.72688 | -70.55169 | 2453 ft | 162 kts | 334° |
| 2026-04-20 20:27 | 19.73687 | -70.55726 | 2462 ft | 162 kts | 334° |
| 2026-04-20 20:27 | 19.74679 | -70.56310 | 2459 ft | 163 kts | 327° |
| 2026-04-20 20:27 | 19.75396 | -70.57238 | 2465 ft | 163 kts | 301° |
| 2026-04-20 20:27 | 19.75996 | -70.58249 | 2476 ft | 164 kts | 302° |
| 2026-04-20 20:28 | 19.76619 | -70.59272 | 2473 ft | 164 kts | 302° |
| 2026-04-20 20:28 | 19.77244 | -70.60294 | 2469 ft | 164 kts | 302° |
| 2026-04-20 20:28 | 19.77869 | -70.61316 | 2411 ft | 167 kts | 302° |
| 2026-04-20 20:28 | 19.78501 | -70.62353 | 2240 ft | 169 kts | 302° |
| 2026-04-20 20:29 | 19.79134 | -70.63403 | 2046 ft | 170 kts | 303° |
| 2026-04-20 20:29 | 19.79762 | -70.64467 | 1848 ft | 170 kts | 303° |
| 2026-04-20 20:29 | 19.80384 | -70.65540 | 1648 ft | 169 kts | 303° |
| 2026-04-20 20:29 | 19.80985 | -70.66607 | 1494 ft | 166 kts | 303° |
| 2026-04-20 20:30 | 19.81564 | -70.67662 | 1449 ft | 164 kts | 302° |
| 2026-04-20 20:30 | 19.82127 | -70.68699 | 1450 ft | 163 kts | 302° |
| 2026-04-20 20:30 | 19.82691 | -70.69740 | 1460 ft | 163 kts | 302° |
| 2026-04-20 20:30 | 19.83257 | -70.70785 | 1466 ft | 163 kts | 302° |
| 2026-04-20 20:31 | 19.83819 | -70.71819 | 1468 ft | 163 kts | 302° |
| 2026-04-20 20:31 | 19.84389 | -70.72867 | 1468 ft | 163 kts | 302° |
| 2026-04-20 20:31 | 19.84956 | -70.73911 | 1468 ft | 163 kts | 302° |
| 2026-04-20 20:31 | 19.85516 | -70.74938 | 1468 ft | 163 kts | 302° |
| 2026-04-20 20:32 | 19.86090 | -70.75992 | 1468 ft | 163 kts | 302° |
| 2026-04-20 20:32 | 19.86651 | -70.77022 | 1468 ft | 163 kts | 302° |
| 2026-04-20 20:32 | 19.87217 | -70.78061 | 1468 ft | 162 kts | 302° |
| 2026-04-20 20:32 | 19.87782 | -70.79098 | 1468 ft | 161 kts | 302° |
| 2026-04-20 20:33 | 19.88304 | -70.80054 | 1469 ft | 161 kts | 302° |
| 2026-04-20 20:33 | 19.88516 | -70.80441 | 1469 ft | 161 kts | 302° |
| 2026-04-20 20:33 | 19.89055 | -70.81449 | 1211 ft | 148 kts | 301° |
| 2026-04-20 20:33 | 19.89432 | -70.82393 | 950 ft | 132 kts | 280° |
| 2026-04-20 20:34 | 19.89185 | -70.83206 | 787 ft | 106 kts | 205° |
| 2026-04-20 20:34 | 19.88607 | -70.83120 | 596 ft | 78 kts | 137° |
| 2026-04-20 20:34 | 19.88275 | -70.82808 | 559 ft | 52 kts | 128° |
| 2026-04-20 20:34 | 19.87990 | -70.82535 | 546 ft | 61 kts | 130° |
| 2026-04-20 20:35 | 19.87650 | -70.82204 | 485 ft | 68 kts | 132° |
| 2026-04-20 20:35 | 19.87310 | -70.81909 | 402 ft | 52 kts | 134° |
| 2026-04-20 20:35 | 19.87073 | -70.81738 | 301 ft | 36 kts | 133° |
| 2026-04-20 20:35 | 19.86924 | -70.81616 | 203 ft | 13 kts | 117° |
| 2026-04-20 20:36 | 19.86906 | -70.81583 | 169 ft | 3 kts | 100° |
| 2026-04-20 20:36 | 19.86902 | -70.81574 | 150 ft | 0 kts | 100° |
| 2026-04-20 20:37 | 19.86902 | -70.81575 | 150 ft | 0 kts | 101° |
| 2026-04-20 20:38 | 19.86902 | -70.81576 | 150 ft | 0 kts | 101° |